Time;durP1;ratioP1;P1;durP2;ratioP2;P2;SDS_P1;SDS_P2;PMS_P1;PMS_P2;Temp;Humidity;BMP_temperature;BMP_pressure;BME280_temperature;BME280_humidity;BME280_pressure;Samples;Min_cycle;Max_cycle;Signal;HPM_P1;HPM_P2
2023/11/24 00:03:08;;;;;;;;;54.00;43.25;;;;;15.66;82.75;100924.81;146621;569;47010;-69
2023/11/24 00:06:06;;;;;;;;;47.50;38.75;;;;;15.62;83.86;100919.44;146616;565;45027;-69
2023/11/24 00:09:14;;;;;;;;;38.50;33.25;;;;;15.59;82.84;100919.34;146623;569;45020;-69
2023/11/24 00:12:10;;;;;;;;;44.00;35.00;;;;;15.54;82.98;100924.38;146619;627;46015;-69
2023/11/24 00:15:13;;;;;;;;;44.00;36.50;;;;;15.50;83.27;100925.13;146623;580;46010;-69
2023/11/24 00:18:17;;;;;;;;;45.50;37.00;;;;;15.39;84.50;100927.38;146617;622;46016;-68
2023/11/24 00:21:18;;;;;;;;;46.75;37.75;;;;;15.27;84.46;100918.22;146623;573;46010;-68
2023/11/24 00:24:33;;;;;;;;;46.25;37.25;;;;;13.29;83.98;100587.53;146617;577;47012;-68
2023/11/24 00:27:30;;;;;;;;;47.25;38.00;;;;;15.14;84.90;100912.56;146622;565;46010;-68
2023/11/24 00:30:28;;;;;;;;;46.50;37.00;;;;;15.08;84.63;100914.97;146617;569;46489;-69
2023/11/24 00:33:30;;;;;;;;;46.25;38.25;;;;;14.99;84.50;100912.03;146622;640;46020;-70
2023/11/24 00:36:32;;;;;;;;;52.50;39.25;;;;;14.88;84.86;100905.50;146620;644;47013;-70
2023/11/24 00:39:28;;;;;;;;;49.25;38.75;;;;;14.78;84.86;100901.66;146618;632;47020;-69
2023/11/24 00:42:40;;;;;;;;;;;;;;;;;;;;;
2023/11/24 00:45:50;;;;;;;;;46.00;36.50;;;;;14.75;85.25;100905.03;146620;602;46020;-69
2023/11/24 00:48:59;;;;;;;;;44.75;37.00;;;;;14.70;83.75;100890.97;146614;686;47016;-69
2023/11/24 00:51:57;;;;;;;;;44.25;35.75;;;;;14.61;84.22;100880.19;146620;669;47010;-68
2023/11/24 00:54:59;;;;;;;;;51.00;37.75;;;;;14.60;85.20;100886.19;146618;624;47012;-68
2023/11/24 00:57:58;;;;;;;;;45.50;36.75;;;;;14.57;84.81;100888.69;146621;589;46015;-68
2023/11/24 01:00:53;;;;;;;;;46.25;36.75;;;;;14.51;85.02;100875.41;146619;604;46016;-70
2023/11/24 01:04:05;;;;;;;;;45.25;37.25;;;;;14.46;84.89;100880.44;146620;593;47010;-70
2023/11/24 01:07:01;;;;;;;;;43.50;36.00;;;;;14.41;84.37;100875.88;146618;579;46918;-69
2023/11/24 01:09:56;;;;;;;;;44.50;36.50;;;;;14.35;84.87;100880.87;146621;711;46020;-70
2023/11/24 01:12:54;;;;;;;;;45.50;38.25;;;;;14.31;84.58;100880.75;146620;653;46017;-71
2023/11/24 01:15:46;;;;;;;;;37.00;33.50;;;;;14.29;84.84;100874.56;146620;566;46010;-70
2023/11/24 01:18:49;;;;;;;;;40.50;33.75;;;;;14.25;84.94;100862.25;146619;570;46012;-71
2023/11/24 01:22:08;;;;;;;;;39.00;33.00;;;;;14.22;84.28;100854.31;146621;574;46010;-70
2023/11/24 01:25:04;;;;;;;;;36.50;31.00;;;;;14.16;85.43;100854.06;146621;624;46012;-72
2023/11/24 01:28:13;;;;;;;;;37.25;30.50;;;;;14.08;84.55;100845.03;146621;625;46020;-70
2023/11/24 01:31:13;;;;;;;;;35.50;31.00;;;;;13.99;84.98;100829.97;146619;574;46917;-71
2023/11/24 01:34:23;;;;;;;;;33.75;31.00;;;;;13.92;85.16;100832.25;146621;579;46020;-70
2023/11/24 01:37:23;;;;;;;;;36.25;31.00;;;;;13.86;85.84;100827.69;146620;607;46012;-70
2023/11/24 01:40:22;;;;;;;;;36.50;31.00;;;;;13.81;85.89;100819.69;146621;569;46020;-70
2023/11/24 01:43:38;;;;;;;;;31.25;29.50;;;;;13.77;84.87;100814.28;146619;639;46012;-69
2023/11/24 01:46:50;;;;;;;;;32.50;28.50;;;;;13.73;85.53;100797.62;146624;590;45020;-72
2023/11/24 01:49:53;;;;;;;;;33.00;29.75;;;;;13.69;85.89;100794.88;146621;701;45017;-70
2023/11/24 01:52:58;;;;;;;;;28.25;25.50;;;;;13.66;85.71;100794.75;146620;607;46025;-70
2023/11/24 01:56:02;;;;;;;;;27.25;24.25;;;;;13.60;86.18;100785.84;146616;574;47016;-71
2023/11/24 01:59:04;;;;;;;;;25.00;24.75;;;;;13.52;86.90;100778.53;146619;634;46010;-72
2023/11/24 02:02:20;;;;;;;;;;;;;;;;;;;;;
2023/11/24 02:05:35;;;;;;;;;25.50;19.50;;;;;13.40;86.23;100759.00;146621;578;46011;-71
2023/11/24 02:08:40;;;;;;;;;25.00;22.50;;;;;13.39;86.70;100762.44;146618;593;47012;-67
2023/11/24 02:11:47;;;;;;;;;20.25;19.75;;;;;13.40;86.86;100779.84;146621;578;46020;-69
2023/11/24 02:14:39;;;;;;;;;21.25;19.50;;;;;13.43;86.76;100776.47;146615;595;47014;-69
2023/11/24 02:17:38;;;;;;;;;30.50;25.00;;;;;13.46;86.72;100786.09;146621;622;46020;-68
2023/11/24 02:20:36;;;;;;;;;20.25;18.00;;;;;13.50;86.34;100780.22;146618;615;46014;-70
2023/11/24 02:23:34;;;;;;;;;24.25;21.50;;;;;13.52;86.17;100771.66;146622;569;46020;-70
2023/11/24 02:26:32;;;;;;;;;24.25;20.50;;;;;13.46;85.36;100774.00;146617;582;46030;-70
2023/11/24 02:29:27;;;;;;;;;23.75;21.50;;;;;13.39;85.42;100759.84;146620;659;46014;-69
2023/11/24 02:32:39;;;;;;;;;22.50;21.50;;;;;13.32;85.47;100759.53;146617;569;46032;-69
2023/11/24 02:35:37;;;;;;;;;23.00;21.00;;;;;13.26;85.85;100754.94;146622;602;45021;-69
2023/11/24 02:38:45;;;;;;;;;20.50;18.50;;;;;13.21;85.62;100750.34;146621;630;46012;-69
2023/11/24 02:41:47;;;;;;;;;20.75;19.50;;;;;13.20;85.70;100751.16;146621;631;47010;-69
2023/11/24 02:44:45;;;;;;;;;18.75;17.00;;;;;13.21;85.50;100742.53;146617;733;46014;-68
2023/11/24 02:47:47;;;;;;;;;20.75;19.75;;;;;13.21;85.91;100742.53;146620;600;47010;-70
2023/11/24 02:50:54;;;;;;;;;18.50;15.00;;;;;13.17;85.96;100734.59;146619;580;46017;-69
2023/11/24 02:54:10;;;;;;;;;22.25;18.25;;;;;13.16;85.87;100732.81;146621;607;46020;-69
2023/11/24 02:57:03;;;;;;;;;19.25;18.00;;;;;13.19;86.43;100726.84;146619;599;46014;-71
2023/11/24 03:00:02;;;;;;;;;14.25;13.00;;;;;13.21;86.01;100717.41;146623;611;46020;-74
2023/11/24 03:03:03;;;;;;;;;14.00;13.75;;;;;13.20;85.46;100723.41;146616;593;46915;-73
2023/11/24 03:06:03;;;;;;;;;15.25;12.75;;;;;13.22;85.74;100728.69;146619;587;46021;-68
2023/11/24 03:09:02;;;;;;;;;14.25;14.25;;;;;13.20;85.84;100736.44;146619;653;46016;-71
2023/11/24 03:12:30;;;;;;;;;16.50;14.00;;;;;13.16;85.17;100735.44;146622;565;46010;-70
2023/11/24 03:15:35;;;;;;;;;14.75;13.50;;;;;13.16;85.45;100719.81;146619;569;46014;-70
2023/11/24 03:18:30;;;;;;;;;18.50;17.00;;;;;13.17;86.12;100712.88;146621;618;46021;-70
2023/11/24 03:21:32;;;;;;;;;21.00;17.75;;;;;13.20;86.68;100699.97;146618;615;46017;-70
2023/11/24 03:24:34;;;;;;;;;21.75;20.00;;;;;13.31;87.33;100709.16;146621;564;46021;-69
2023/11/24 03:27:29;;;;;;;;;20.00;17.25;;;;;13.35;87.47;100695.41;146616;581;46016;-70
2023/11/24 03:30:25;;;;;;;;;24.25;21.00;;;;;13.43;87.38;100689.59;146619;635;47020;-70
2023/11/24 03:33:36;;;;;;;;;27.50;20.00;;;;;13.50;87.24;100676.03;146612;682;46017;-70
2023/11/24 03:36:50;;;;;;;;;20.50;18.50;;;;;13.59;86.97;100678.97;146614;592;46014;-68
2023/11/24 03:39:55;;;;;;;;;22.25;20.25;;;;;13.68;87.49;100676.72;146611;698;46016;-68
2023/11/24 03:42:48;;;;;;;;;22.75;19.50;;;;;13.76;87.69;100667.47;146614;595;46014;-68
2023/11/24 03:45:43;;;;;;;;;16.25;15.25;;;;;13.80;87.16;100661.56;146612;649;47026;-68
2023/11/24 03:48:55;;;;;;;;;24.50;22.50;;;;;13.86;86.91;100661.78;146616;569;46010;-69
2023/11/24 03:52:01;;;;;;;;;27.75;21.75;;;;;13.91;87.44;100663.66;146611;588;47012;-69
2023/11/24 03:55:00;;;;;;;;;22.75;19.75;;;;;13.95;87.53;100663.81;146614;584;47011;-68
2023/11/24 03:58:00;;;;;;;;;26.75;24.75;;;;;13.98;86.99;100658.72;146614;570;46016;-70
2023/11/24 04:01:09;;;;;;;;;29.00;24.50;;;;;13.98;87.07;100663.03;146612;579;46010;-69
2023/11/24 04:04:15;;;;;;;;;22.50;18.50;;;;;13.95;86.62;100650.78;146613;579;46915;-69
2023/11/24 04:07:08;;;;;;;;;21.00;18.50;;;;;13.96;87.85;100651.69;146615;573;46020;-69
2023/11/24 04:10:12;;;;;;;;;19.75;19.75;;;;;13.94;86.91;100643.81;146616;646;46017;-69
2023/11/24 04:13:15;;;;;;;;;23.50;20.50;;;;;12.65;86.91;100411.59;146614;673;46020;-69
2023/11/24 04:16:18;;;;;;;;;21.25;19.75;;;;;13.98;87.59;100639.56;146611;573;46016;-71
2023/11/24 04:19:31;;;;;;;;;18.00;16.00;;;;;12.35;86.91;100357.56;146616;611;46010;-71
2023/11/24 04:22:34;;;;;;;;;21.00;19.75;;;;;14.01;86.96;100634.47;146616;718;46012;-71
2023/11/24 04:25:41;;;;;;;;;21.25;19.75;;;;;14.02;87.09;100639.75;146612;578;46014;-72
2023/11/24 04:29:05;;;;;;;;;;;;;;;;;;;;;
2023/11/24 04:32:20;;;;;;;;;;;;;;;;;;;;;
2023/11/24 04:35:27;;;;;;;;;22.25;21.25;;;;;14.05;87.44;100619.00;146617;700;46018;-70
2023/11/24 04:38:39;;;;;;;;;16.00;14.25;;;;;14.03;87.82;100612.84;146622;585;46020;-69
2023/11/24 04:41:44;;;;;;;;;17.50;14.75;;;;;14.01;87.46;100613.63;146618;585;46016;-70
2023/11/24 04:44:43;;;;;;;;;19.00;17.00;;;;;14.00;87.28;100619.69;146623;565;45020;-70
2023/11/24 04:47:51;;;;;;;;;20.50;17.00;;;;;13.97;87.17;100615.22;146619;588;46017;-70
2023/11/24 04:50:46;;;;;;;;;23.75;19.00;;;;;13.94;86.77;100620.34;146622;569;46010;-71
2023/11/24 04:53:58;;;;;;;;;15.25;14.25;;;;;13.93;86.71;100621.19;146619;614;45017;-71
2023/11/24 04:57:17;;;;;;;;;18.25;15.25;;;;;13.92;86.25;100623.72;146622;569;47020;-71
2023/11/24 05:00:25;;;;;;;;;14.50;14.50;;;;;13.89;86.91;100621.00;146617;600;46016;-72
2023/11/24 05:03:19;;;;;;;;;16.25;16.25;;;;;13.89;87.41;100611.47;146619;595;46021;-73
2023/11/24 05:06:28;;;;;;;;;21.75;15.50;;;;;13.88;87.16;100611.41;146621;615;46016;-72
2023/11/24 05:09:41;;;;;;;;;18.50;17.50;;;;;13.85;86.74;100602.66;146622;575;46021;-72
2023/11/24 05:12:38;;;;;;;;;16.75;14.00;;;;;13.85;87.69;100607.84;146620;690;47037;-72
2023/11/24 05:15:47;;;;;;;;;18.50;16.50;;;;;13.84;86.69;100606.09;146626;593;46010;-72
2023/11/24 05:18:45;;;;;;;;;18.00;15.00;;;;;13.84;87.74;100597.41;146620;614;45036;-73
2023/11/24 05:21:56;;;;;;;;;20.00;15.00;;;;;13.84;88.09;100594.78;146617;624;46020;-72
2023/11/24 05:24:51;;;;;;;;;19.50;14.00;;;;;13.85;88.36;100597.44;146620;565;46017;-72
2023/11/24 05:27:55;;;;;;;;;20.25;14.50;;;;;13.87;88.50;100592.28;146625;612;46010;-72
2023/11/24 05:31:19;;;;;;;;;20.75;18.50;;;;;13.90;88.02;100586.31;146619;756;47014;-74
2023/11/24 05:34:20;;;;;;;;;16.50;14.25;;;;;13.94;88.73;100569.94;146622;579;46020;-74
2023/11/24 05:37:21;;;;;;;;;16.25;15.25;;;;;14.00;88.52;100581.44;146618;568;46016;-74
2023/11/24 05:40:20;;;;;;;;;17.50;15.00;;;;;14.05;88.71;100579.91;146623;697;46021;-75
2023/11/24 05:43:15;;;;;;;;;18.25;16.25;;;;;14.11;88.74;100579.19;146620;582;46917;-75
2023/11/24 05:46:19;;;;;;;;;18.25;15.50;;;;;12.61;88.14;100300.44;146621;570;46019;-72
2023/11/24 05:49:15;;;;;;;;;26.75;21.75;;;;;14.24;88.79;100570.13;146618;651;46016;-71
2023/11/24 05:52:15;;;;;;;;;24.00;21.25;;;;;14.28;89.09;100571.97;146622;647;46020;-72
2023/11/24 05:55:22;;;;;;;;;23.75;20.75;;;;;14.29;89.00;100573.75;146619;584;46017;-72
2023/11/24 05:58:17;;;;;;;;;20.75;17.75;;;;;14.30;89.13;100565.09;146624;583;46010;-71
2023/11/24 06:01:21;;;;;;;;;22.00;20.00;;;;;14.34;88.70;100566.97;146621;576;46012;-71
2023/11/24 06:04:21;;;;;;;;;26.50;21.50;;;;;14.38;89.30;100573.16;146619;600;46020;-73
2023/11/24 06:07:16;;;;;;;;;30.00;27.75;;;;;14.44;89.30;100575.97;146616;583;46016;-74
2023/11/24 06:10:18;;;;;;;;;27.50;23.00;;;;;14.50;89.37;100576.19;146620;587;46021;-73
2023/11/24 06:13:10;;;;;;;;;29.75;27.50;;;;;14.57;89.72;100561.66;146620;576;46012;-73
2023/11/24 06:16:17;;;;;;;;;31.25;27.75;;;;;14.64;88.88;100568.81;146623;594;46010;-73
2023/11/24 06:19:09;;;;;;;;;20.00;20.00;;;;;14.70;89.66;100566.41;146621;573;47012;-73
2023/11/24 06:22:16;;;;;;;;;21.00;19.00;;;;;13.24;88.91;100300.94;146624;571;46010;-74
2023/11/24 06:25:21;;;;;;;;;32.00;28.00;;;;;14.83;89.65;100563.38;146616;608;46016;-74
2023/11/24 06:28:13;;;;;;;;;29.50;27.00;;;;;14.89;89.20;100565.25;146622;590;45020;-71
2023/11/24 06:31:19;;;;;;;;;25.00;23.50;;;;;14.95;89.83;100568.97;146618;618;46016;-71
2023/11/24 06:34:17;;;;;;;;;33.25;27.75;;;;;15.02;89.08;100565.72;146619;582;46020;-71
2023/11/24 06:37:14;;;;;;;;;27.25;25.00;;;;;15.10;89.62;100571.16;146618;625;46016;-71
2023/11/24 06:40:33;;;;;;;;;27.50;26.25;;;;;13.61;87.90;100304.75;146623;582;46010;-73
2023/11/24 06:43:29;;;;;;;;;24.75;23.50;;;;;15.18;88.09;100571.41;146618;579;46012;-73
2023/11/24 06:46:38;;;;;;;;;27.25;24.50;;;;;15.24;88.78;100566.37;146622;604;46020;-72
2023/11/24 06:49:51;;;;;;;;;30.75;25.50;;;;;15.31;88.95;100562.19;146620;709;46012;-70
2023/11/24 06:53:13;;;;;;;;;23.25;21.25;;;;;14.15;87.69;100345.56;146623;603;46011;-68
2023/11/24 06:56:15;;;;;;;;;18.50;17.75;;;;;15.52;88.19;100567.16;146619;569;46016;-70
2023/11/24 06:59:25;;;;;;;;;19.75;18.00;;;;;15.61;87.29;100560.47;146618;571;46020;-69
2023/11/24 07:02:25;;;;;;;;;26.25;23.50;;;;;15.71;87.50;100561.66;146619;606;46016;-70
2023/11/24 07:05:24;;;;;;;;;26.50;25.75;;;;;15.79;87.84;100559.22;146623;569;46014;-71
2023/11/24 07:08:20;;;;;;;;;33.75;28.75;;;;;15.87;87.37;100560.34;146617;573;47013;-69
2023/11/24 07:11:13;;;;;;;;;37.50;31.75;;;;;15.91;87.29;100552.59;146621;605;46010;-70
2023/11/24 07:14:37;;;;;;;;;37.00;31.00;;;;;15.99;87.04;100555.44;146615;648;46917;-71
2023/11/24 07:17:32;;;;;;;;;34.00;30.25;;;;;16.05;86.91;100558.22;146623;580;46020;-71
2023/11/24 07:20:41;;;;;;;;;36.00;30.75;;;;;15.34;86.59;100437.78;146620;594;46012;-71
2023/11/24 07:23:39;;;;;;;;;35.75;32.00;;;;;16.23;86.53;100559.53;146620;628;47000;-71
2023/11/24 07:26:34;;;;;;;;;39.00;33.75;;;;;16.29;85.59;100550.13;146618;602;46016;-70
2023/11/24 07:29:36;;;;;;;;;38.50;32.00;;;;;16.43;85.24;100550.44;146625;787;46010;-71
2023/11/24 07:32:46;;;;;;;;;34.50;29.25;;;;;16.68;85.93;100538.84;146618;597;47012;-71
2023/11/24 07:36:08;;;;;;;;;32.25;30.75;;;;;15.60;84.59;100272.94;146615;569;46020;-71
2023/11/24 07:39:03;;;;;;;;;26.75;25.25;;;;;17.37;82.49;100511.56;146617;591;46016;-71
2023/11/24 07:42:04;;;;;;;;;31.25;26.00;;;;;17.67;81.41;100499.91;146618;598;47010;-71
2023/11/24 07:45:10;;;;;;;;;31.50;29.00;;;;;18.00;81.26;100500.53;146614;795;47917;-71
2023/11/24 07:48:04;;;;;;;;;27.25;23.75;;;;;18.34;79.67;100494.97;146623;722;46023;-71
2023/11/24 07:51:00;;;;;;;;;23.00;20.75;;;;;18.62;77.15;100493.66;146618;566;46016;-71
2023/11/24 07:54:25;;;;;;;;;24.00;23.75;;;;;18.88;75.74;100494.09;146622;586;46010;-71
2023/11/24 07:57:32;;;;;;;;;34.25;29.25;;;;;19.09;74.19;100499.59;146618;647;46917;-70
2023/11/24 08:00:32;;;;;;;;;43.75;35.75;;;;;19.20;71.95;100486.59;146617;570;46010;-71
2023/11/24 08:03:40;;;;;;;;;;;;;;;;;;;;;
2023/11/24 08:06:51;;;;;;;;;41.75;34.00;;;;;19.27;72.90;100493.69;146624;567;45029;-71
2023/11/24 08:09:47;;;;;;;;;31.50;28.50;;;;;19.34;72.26;100487.63;146618;581;46915;-71
2023/11/24 08:12:39;;;;;;;;;31.25;29.50;;;;;19.41;72.10;100490.34;146622;583;46020;-71
2023/11/24 08:15:57;;;;;;;;;37.00;32.25;;;;;19.55;72.19;100494.03;146621;692;46017;-72
2023/11/24 08:18:59;;;;;;;;;46.50;36.50;;;;;19.71;70.61;100484.56;146619;593;45020;-71
2023/11/24 08:22:06;;;;;;;;;31.75;29.00;;;;;19.84;71.43;100479.47;146617;599;46016;-70
2023/11/24 08:25:19;;;;;;;;;23.00;22.25;;;;;20.00;71.10;100476.94;146622;613;46010;-71
2023/11/24 08:28:19;;;;;;;;;16.75;13.75;;;;;20.13;68.64;100465.69;146621;576;46014;-70
2023/11/24 08:31:21;;;;;;;;;14.00;12.33;;;;;20.22;67.82;100467.50;146623;677;46020;-70
2023/11/24 08:34:20;;;;;;;;;15.25;11.50;;;;;20.32;69.75;100469.34;146619;565;46916;-71
2023/11/24 08:37:30;;;;;;;;;17.00;13.00;;;;;20.44;67.56;100463.28;146621;570;46011;-69
2023/11/24 08:40:34;;;;;;;;;13.75;11.50;;;;;20.53;67.65;100460.75;146618;618;46034;-71
2023/11/24 08:43:32;;;;;;;;;17.50;13.75;;;;;20.63;67.04;100459.03;146622;701;46010;-71
2023/11/24 08:46:45;;;;;;;;;;;;;;;;;;;;;
2023/11/24 08:49:37;;;;;;;;;13.50;13.50;;;;;20.83;64.79;100440.69;146621;597;46020;-71
2023/11/24 08:52:52;;;;;;;;;14.00;10.67;;;;;20.91;64.52;100445.12;146619;588;46012;-70
2023/11/24 08:55:51;;;;;;;;;16.67;15.00;;;;;20.95;63.88;100451.28;146628;570;46010;-71
2023/11/24 08:59:09;;;;;;;;;14.00;13.00;;;;;20.86;64.68;100440.72;146616;666;46917;-70
2023/11/24 09:02:22;;;;;;;;;15.50;12.50;;;;;20.77;65.73;100431.88;146623;573;45026;-71
2023/11/24 09:05:28;;;;;;;;;11.50;11.00;;;;;20.82;66.09;100418.72;146613;661;46016;-70
2023/11/24 09:08:24;;;;;;;;;15.00;13.00;;;;;20.92;64.95;100422.28;146624;611;45029;-70
2023/11/24 09:11:26;;;;;;;;;11.00;10.00;;;;;20.98;63.65;100417.03;146623;628;46016;-70
2023/11/24 09:14:33;;;;;;;;;;;;;;;;;;;;;
2023/11/24 09:17:38;;;;;;;;;12.33;10.00;;;;;21.05;63.67;100410.91;146617;577;48014;-70
2023/11/24 09:20:46;;;;;;;;;;;;;;;;;;;;;
2023/11/24 09:23:46;;;;;;;;;12.75;12.25;;;;;20.99;63.00;100410.88;146620;580;46016;-70
2023/11/24 09:26:46;;;;;;;;;10.67;9.00;;;;;20.98;63.15;100415.28;146624;564;46020;-69
2023/11/24 09:29:39;;;;;;;;;7.33;4.67;;;;;20.97;63.08;100408.25;146620;677;47918;-71
2023/11/24 09:32:49;;;;;;;;;15.00;12.33;;;;;21.05;64.05;100405.63;146625;592;46020;-70
2023/11/24 09:35:49;;;;;;;;;8.67;8.33;;;;;21.15;62.71;100409.19;146622;576;46017;-70
2023/11/24 09:38:51;;;;;;;;;12.33;10.33;;;;;21.21;61.92;100399.56;146623;569;46010;-71
2023/11/24 09:42:18;;;;;;;;;13.00;10.00;;;;;21.28;63.22;100386.34;146619;564;46016;-72
2023/11/24 09:45:33;;;;;;;;;13.00;11.00;;;;;21.37;65.05;100375.84;146621;598;46020;-71
2023/11/24 09:48:31;;;;;;;;;10.67;10.67;;;;;21.40;61.61;100368.87;146616;588;45580;-72
2023/11/24 09:51:26;;;;;;;;;13.00;12.00;;;;;21.51;61.59;100362.72;146622;571;46010;-70
2023/11/24 09:54:36;;;;;;;;;11.67;11.33;;;;;21.57;60.77;100345.13;146620;598;46016;-70
2023/11/24 09:57:59;;;;;;;;;11.33;11.33;;;;;20.88;63.50;100200.03;146626;622;45031;-71
2023/11/24 10:01:06;;;;;;;;;14.33;12.33;;;;;21.76;60.65;100326.66;146617;612;46016;-72
2023/11/24 10:04:12;;;;;;;;;14.33;13.33;;;;;21.80;61.92;100304.63;146622;717;46010;-71
2023/11/24 10:07:29;;;;;;;;;11.33;11.00;;;;;21.81;61.80;100298.50;146617;578;46920;-70
2023/11/24 10:10:44;;;;;;;;;11.67;10.00;;;;;21.71;60.99;100296.72;146621;596;47010;-72
2023/11/24 10:13:50;;;;;;;;;11.00;11.00;;;;;21.55;59.67;100286.19;146614;600;46017;-71
2023/11/24 10:16:42;;;;;;;;;12.67;11.33;;;;;21.34;61.63;100268.59;146622;601;46020;-71
2023/11/24 10:20:05;;;;;;;;;10.50;8.50;;;;;21.15;62.62;100246.63;146622;614;47015;-70
2023/11/24 10:23:10;;;;;;;;;14.67;14.33;;;;;21.07;62.51;100255.41;146623;609;46020;-71
2023/11/24 10:26:21;;;;;;;;;16.67;14.00;;;;;20.92;62.72;100248.34;146619;572;46016;-71
2023/11/24 10:29:36;;;;;;;;;15.25;12.50;;;;;20.70;64.08;100237.75;146616;712;46030;-70
2023/11/24 10:32:39;;;;;;;;;13.67;13.00;;;;;20.51;62.90;100236.84;146622;650;46012;-71
2023/11/24 10:35:36;;;;;;;;;12.00;11.00;;;;;20.24;63.93;100232.31;146625;605;46014;-72
2023/11/24 10:38:57;;;;;;;;;13.25;12.00;;;;;20.01;66.95;100226.09;146617;565;47012;-70
2023/11/24 10:41:55;;;;;;;;;14.75;13.50;;;;;19.82;66.53;100226.00;146621;573;46005;-71
2023/11/24 10:45:04;;;;;;;;;15.75;11.75;;;;;19.70;67.21;100215.41;146619;599;46917;-71
2023/11/24 10:48:33;;;;;;;;;16.00;12.33;;;;;18.77;68.68;100062.28;146616;584;47020;-71
2023/11/24 10:52:10;;;;;;;;;13.67;12.00;;;;;18.19;68.77;99978.66;146619;580;46012;-71
2023/11/24 10:55:28;;;;;;;;;10.33;10.00;;;;;19.48;68.55;100206.47;146621;571;46020;-70
2023/11/24 10:58:25;;;;;;;;;13.00;13.00;;;;;19.43;68.33;100202.91;146621;651;46017;-71
2023/11/24 11:01:33;;;;;;;;;18.00;16.00;;;;;19.43;69.50;100188.88;146622;609;46020;-71
2023/11/24 11:04:54;;;;;;;;;15.00;12.00;;;;;19.47;67.78;100180.13;146619;824;47917;-72
2023/11/24 11:08:24;;;;;;;;;12.00;11.00;;;;;18.27;67.67;99963.00;146626;564;46010;-72
2023/11/24 11:12:29;;;;;;;;;13.67;11.00;;;;;18.96;68.94;100064.16;146618;649;47918;-71
2023/11/24 11:16:03;;;;;;;;;12.00;12.00;;;;;19.59;67.25;100157.44;146622;672;47008;-73
2023/11/24 11:19:35;;;;;;;;;12.00;12.00;;;;;18.23;67.72;99914.84;146621;575;46012;-71
2023/11/24 11:22:43;;;;;;;;;12.00;12.00;;;;;19.48;68.13;100145.97;146620;635;46020;-72
2023/11/24 11:26:07;;;;;;;;;14.33;11.33;;;;;18.02;68.53;99902.44;146619;577;46016;-71
2023/11/24 11:29:15;;;;;;;;;11.00;11.00;;;;;19.41;69.98;100135.41;146622;569;47010;-70
2023/11/24 11:32:26;;;;;;;;;15.00;12.00;;;;;19.43;68.13;100115.25;146620;590;46016;-71
2023/11/24 11:35:31;;;;;;;;;14.75;13.00;;;;;19.43;68.83;100123.16;146625;615;46011;-71
2023/11/24 11:38:56;;;;;;;;;;;;;;;;;;;;;
2023/11/24 11:42:19;;;;;;;;;15.75;13.00;;;;;18.03;69.36;99906.81;146620;701;46021;-73
2023/11/24 11:45:29;;;;;;;;;13.25;12.75;;;;;19.45;70.43;100127.56;146620;624;46014;-71
2023/11/24 11:48:33;;;;;;;;;16.75;13.25;;;;;19.71;69.52;100101.41;146621;655;46020;-71
2023/11/24 11:51:41;;;;;;;;;14.00;13.33;;;;;19.95;68.58;100107.66;146621;635;45017;-71
2023/11/24 11:54:47;;;;;;;;;12.33;11.00;;;;;20.12;66.69;100099.78;146626;566;46010;-71
2023/11/24 11:57:40;;;;;;;;;13.00;12.33;;;;;20.33;66.79;100102.47;146621;578;46012;-71
2023/11/24 12:00:35;;;;;;;;;13.33;13.00;;;;;20.55;67.32;100097.25;146619;569;48010;-71
2023/11/24 12:03:34;;;;;;;;;13.00;12.33;;;;;20.82;65.23;100086.72;146620;581;46016;-70
2023/11/24 12:06:37;;;;;;;;;11.33;11.33;;;;;21.06;64.88;100071.75;146624;588;47010;-72
2023/11/24 12:09:36;;;;;;;;;11.00;10.00;;;;;21.18;63.47;100061.16;146619;609;46016;-71
2023/11/24 12:12:43;;;;;;;;;12.00;11.00;;;;;21.28;63.27;100056.75;146612;564;47920;-71
2023/11/24 12:15:38;;;;;;;;;14.67;12.67;;;;;21.37;62.85;100057.66;146621;661;46915;-72
2023/11/24 12:18:55;;;;;;;;;15.25;13.75;;;;;21.54;62.07;100060.22;146621;742;46020;-73
2023/11/24 12:21:53;;;;;;;;;16.25;16.00;;;;;21.78;62.30;100064.50;146622;611;46012;-71
2023/11/24 12:24:50;;;;;;;;;14.00;11.50;;;;;21.96;63.05;100055.59;146621;577;47020;-70
2023/11/24 12:27:58;;;;;;;;;14.25;13.00;;;;;22.15;62.56;100061.66;146617;673;46017;-70
2023/11/24 12:31:05;;;;;;;;;15.25;14.25;;;;;22.28;61.80;100062.50;146621;583;46020;-69
2023/11/24 12:34:04;;;;;;;;;12.50;10.75;;;;;22.30;60.94;100058.91;146618;585;47012;-70
2023/11/24 12:37:10;;;;;;;;;10.00;9.67;;;;;22.31;59.75;100067.75;146621;563;46020;-69
2023/11/24 12:40:14;;;;;;;;;13.33;12.33;;;;;20.83;62.42;99839.91;146618;590;47016;-70
2023/11/24 12:43:09;;;;;;;;;14.00;12.33;;;;;22.08;60.66;100058.16;146618;574;46020;-70
2023/11/24 12:46:10;;;;;;;;;11.67;11.33;;;;;21.98;60.91;100045.03;146621;621;46016;-69
2023/11/24 12:49:41;;;;;;;;;11.00;10.67;;;;;21.56;61.83;100032.06;146623;583;46010;-70
2023/11/24 12:52:54;;;;;;;;;;;;;;;;;;;;;
2023/11/24 12:56:04;;;;;;;;;12.67;12.00;;;;;20.91;63.88;100076.16;146623;626;46020;-69
2023/11/24 12:59:02;;;;;;;;;13.25;13.25;;;;;20.61;64.19;100095.50;146616;593;46915;-69
2023/11/24 13:02:05;;;;;;;;;16.33;15.33;;;;;20.25;65.31;100105.09;146622;569;46010;-69
2023/11/24 13:05:08;;;;;;;;;15.75;14.75;;;;;19.90;66.55;100107.59;146617;688;47013;-70
2023/11/24 13:08:03;;;;;;;;;14.75;12.00;;;;;19.72;67.01;100111.06;146621;570;46010;-71
2023/11/24 13:11:02;;;;;;;;;12.00;12.00;;;;;19.54;67.85;100114.47;146617;616;47015;-72
2023/11/24 13:14:01;;;;;;;;;15.75;13.75;;;;;19.45;68.47;100127.56;146623;628;46010;-69
2023/11/24 13:16:58;;;;;;;;;16.00;15.50;;;;;19.37;68.03;100116.97;146617;579;46016;-72
2023/11/24 13:20:20;;;;;;;;;17.75;15.00;;;;;19.23;68.33;100100.25;146621;571;47010;-71
2023/11/24 13:23:27;;;;;;;;;17.00;15.25;;;;;19.06;69.38;100101.87;146622;618;46016;-70
2023/11/24 13:26:25;;;;;;;;;22.00;18.25;;;;;18.98;70.41;100095.72;146623;648;46010;-70
2023/11/24 13:29:33;;;;;;;;;16.00;14.25;;;;;18.92;70.48;100101.81;146621;596;46012;-70
2023/11/24 13:32:28;;;;;;;;;27.50;25.00;;;;;18.82;70.85;100087.72;146622;564;46020;-70
2023/11/24 13:35:26;;;;;;;;;21.25;19.25;;;;;18.77;71.93;100078.94;146617;564;46016;-70
2023/11/24 13:38:29;;;;;;;;;21.00;19.00;;;;;18.73;72.03;100068.41;146622;620;46010;-70
2023/11/24 13:41:27;;;;;;;;;20.50;19.25;;;;;18.66;71.75;100056.91;146619;605;45017;-71
2023/11/24 13:44:42;;;;;;;;;;;;;;;;;;;;;
2023/11/24 13:47:41;;;;;;;;;21.00;17.25;;;;;18.45;72.88;100028.75;146618;630;47013;-70
2023/11/24 13:50:37;;;;;;;;;16.50;15.00;;;;;18.34;73.63;100001.53;146620;701;47038;-71
2023/11/24 13:53:35;;;;;;;;;17.50;15.25;;;;;18.19;73.00;99974.31;146619;639;46016;-69
2023/11/24 13:56:28;;;;;;;;;14.33;12.00;;;;;18.08;71.37;99943.59;146623;569;47011;-70
2023/11/24 13:59:32;;;;;;;;;9.33;8.67;;;;;17.97;70.85;99906.78;146620;646;46016;-71
2023/11/24 14:02:29;;;;;;;;;7.67;6.33;;;;;17.90;70.03;99923.34;146627;595;46020;-69
2023/11/24 14:06:01;;;;;;;;;8.00;8.00;;;;;17.91;70.68;99952.22;146628;567;46012;-70
2023/11/24 14:09:11;;;;;;;;;10.67;10.00;;;;;17.19;70.05;99833.50;146622;619;46020;-70
2023/11/24 14:12:06;;;;;;;;;14.75;12.75;;;;;17.97;69.62;99970.63;146617;674;46016;-71
2023/11/24 14:15:13;;;;;;;;;15.50;13.75;;;;;18.00;69.37;99954.87;146622;662;46014;-71
2023/11/24 14:18:08;;;;;;;;;23.25;19.25;;;;;18.06;70.03;99947.94;146622;595;46016;-70
2023/11/24 14:21:22;;;;;;;;;;;;;;;;;;;;;
2023/11/24 14:24:20;;;;;;;;;12.75;11.50;;;;;17.98;71.38;99924.28;146619;635;46013;-70